createdAt,value
2023-04-18T00:00:15.742Z,96322.53
2023-04-18T00:02:42.255Z,96313.47
2023-04-18T00:05:08.769Z,96320.59
2023-04-18T00:07:35.171Z,96311.22
2023-04-18T00:10:01.545Z,96321.19
2023-04-18T00:12:27.903Z,96313.63
2023-04-18T00:14:54.239Z,96319.25
2023-04-18T00:17:20.638Z,96322.16
2023-04-18T00:19:46.990Z,96315.59
2023-04-18T00:22:13.417Z,96300.97
2023-04-18T00:24:39.797Z,96318.81
2023-04-18T00:27:06.204Z,96304.84
2023-04-18T00:29:32.597Z,96311.03
2023-04-18T00:31:58.993Z,96306.28
2023-04-18T00:34:25.384Z,96295.84
2023-04-18T00:36:51.735Z,96297.00
2023-04-18T00:39:18.116Z,96292.09
2023-04-18T00:41:44.517Z,96308.72
2023-04-18T00:44:11.039Z,96302.34
2023-04-18T00:46:37.525Z,96297.28
2023-04-18T00:49:03.946Z,96295.38
2023-04-18T00:51:30.280Z,96302.94
2023-04-18T00:53:56.654Z,96303.06
2023-04-18T00:56:23.017Z,96300.38
2023-04-18T00:58:49.357Z,96309.16
2023-04-18T01:01:15.762Z,96300.47
2023-04-18T01:03:42.344Z,96294.53
2023-04-18T01:06:08.893Z,96300.38
2023-04-18T01:08:35.248Z,96298.03
2023-04-18T01:11:01.634Z,96294.69
2023-04-18T01:13:27.997Z,96291.56
2023-04-18T01:15:54.443Z,96292.94
2023-04-18T01:18:20.832Z,96300.94
2023-04-18T01:20:47.228Z,96295.84
2023-04-18T01:23:13.603Z,96296.44
2023-04-18T01:25:39.936Z,96298.00
2023-04-18T01:28:06.322Z,96295.19
2023-04-18T01:30:32.676Z,96300.78
2023-04-18T01:32:59.082Z,96297.13
2023-04-18T01:35:25.493Z,96294.09
2023-04-18T01:37:51.858Z,96289.91
2023-04-18T01:40:18.190Z,96288.53
2023-04-18T01:42:44.567Z,96288.25
2023-04-18T01:45:10.977Z,96278.75
2023-04-18T01:47:37.357Z,96281.81
2023-04-18T01:50:03.830Z,96285.28
2023-04-18T01:52:30.188Z,96282.78
2023-04-18T01:54:56.519Z,96283.66
2023-04-18T01:57:22.876Z,96294.25
2023-04-18T01:59:49.276Z,96279.88
2023-04-18T02:02:15.840Z,96288.69
2023-04-18T02:04:42.307Z,96290.56
2023-04-18T02:07:08.655Z,96290.91
2023-04-18T02:09:35.002Z,96294.44
2023-04-18T02:12:01.335Z,96295.25
2023-04-18T02:14:27.678Z,96301.94
2023-04-18T02:16:54.128Z,96303.25
2023-04-18T02:19:20.519Z,96307.56
2023-04-18T02:21:46.916Z,96301.91
2023-04-18T02:24:13.475Z,96299.41
2023-04-18T02:26:39.962Z,96306.50
2023-04-18T02:29:06.325Z,96303.56
2023-04-18T02:31:32.717Z,96299.94
2023-04-18T02:33:59.069Z,96301.19
2023-04-18T02:36:25.407Z,96301.97
2023-04-18T02:38:51.737Z,96301.25
2023-04-18T02:41:18.082Z,96297.19
2023-04-18T02:43:44.474Z,96300.97
2023-04-18T02:46:10.881Z,96306.03
2023-04-18T02:48:37.258Z,96307.53
2023-04-18T02:51:03.680Z,96303.63
2023-04-18T02:53:30.083Z,96308.88
2023-04-18T02:55:56.414Z,96309.47
2023-04-18T02:58:22.848Z,96308.00
2023-04-18T03:00:49.253Z,96307.41
2023-04-18T03:03:15.720Z,96312.53
2023-04-18T03:05:42.130Z,96309.25
2023-04-18T03:08:08.502Z,96314.47
2023-04-18T03:10:34.852Z,96318.38
2023-04-18T03:13:01.191Z,96318.06
2023-04-18T03:15:27.544Z,96318.16
2023-04-18T03:17:53.938Z,96307.69
2023-04-18T03:20:20.364Z,96304.84
2023-04-18T03:22:46.741Z,96305.44
2023-04-18T03:25:13.138Z,96307.91
2023-04-18T03:27:39.536Z,96309.50
2023-04-18T03:30:05.931Z,96300.75
2023-04-18T03:32:32.286Z,96307.69
2023-04-18T03:34:58.683Z,96315.53
2023-04-18T03:37:25.123Z,96300.06
2023-04-18T03:39:51.510Z,96298.81
2023-04-18T03:42:17.875Z,96294.06
2023-04-18T03:44:44.252Z,96295.66
2023-04-18T03:47:10.633Z,96299.97
2023-04-18T03:49:36.974Z,96299.97
2023-04-18T03:52:03.360Z,96302.72
2023-04-18T03:54:29.763Z,96300.34
2023-04-18T03:56:56.158Z,96304.53
2023-04-18T03:59:22.506Z,96301.13
2023-04-18T04:01:48.916Z,96304.75
2023-04-18T04:04:15.726Z,96294.31
2023-04-18T04:06:42.457Z,96303.28
2023-04-18T04:09:08.799Z,96300.56
2023-04-18T04:11:35.168Z,96298.31
2023-04-18T04:14:01.582Z,96302.88
2023-04-18T04:16:28.024Z,96305.56
2023-04-18T04:18:54.418Z,96298.19
2023-04-18T04:21:21.260Z,96306.13
2023-04-18T04:23:47.678Z,96310.00
2023-04-18T04:26:14.083Z,96304.31
2023-04-18T04:28:40.441Z,96313.88
2023-04-18T04:31:06.838Z,96310.81
2023-04-18T04:33:33.279Z,96313.44
2023-04-18T04:35:59.691Z,96312.41
2023-04-18T04:38:26.080Z,96319.47
2023-04-18T04:40:52.433Z,96320.25
2023-04-18T04:43:18.793Z,96318.56
2023-04-18T04:45:45.143Z,96317.19
2023-04-18T04:48:11.551Z,96316.16
2023-04-18T04:50:37.927Z,96320.72
2023-04-18T04:53:04.318Z,96318.22
2023-04-18T04:55:30.687Z,96320.69
2023-04-18T04:57:57.058Z,96319.47
2023-04-18T05:00:23.451Z,96328.09
2023-04-18T05:02:50.138Z,96324.34
2023-04-18T05:05:16.616Z,96322.09
2023-04-18T05:07:43.012Z,96328.66
2023-04-18T05:10:09.398Z,96329.13
2023-04-18T05:12:35.797Z,96326.63
2023-04-18T05:15:02.147Z,96325.84
2023-04-18T05:17:28.568Z,96330.25
2023-04-18T05:19:54.959Z,96322.31
2023-04-18T05:22:21.340Z,96323.22
2023-04-18T05:24:47.737Z,96327.41
2023-04-18T05:27:14.773Z,96324.78
2023-04-18T05:29:42.287Z,96323.53
2023-04-18T05:32:08.677Z,96328.00
2023-04-18T05:34:36.775Z,96330.03
2023-04-18T05:37:04.870Z,96333.81
2023-04-18T05:39:31.229Z,96330.06
2023-04-18T05:41:57.581Z,96333.13
2023-04-18T05:44:23.990Z,96339.41
2023-04-18T05:46:50.352Z,96334.41
2023-04-18T05:49:16.742Z,96343.09
2023-04-18T05:51:43.103Z,96341.59
2023-04-18T05:54:09.497Z,96333.94
2023-04-18T05:56:35.913Z,96345.31
2023-04-18T05:59:02.301Z,96344.09
2023-04-18T06:01:28.670Z,96341.31
2023-04-18T06:03:55.252Z,96341.88
2023-04-18T06:06:21.780Z,96342.00
2023-04-18T06:08:48.127Z,96357.69
2023-04-18T06:11:14.511Z,96361.66
2023-04-18T06:13:40.880Z,96350.72
2023-04-18T06:16:07.310Z,96356.41
2023-04-18T06:18:34.016Z,96362.22
2023-04-18T06:21:00.414Z,96360.28
2023-04-18T06:23:26.863Z,96366.53
2023-04-18T06:25:53.207Z,96359.38
2023-04-18T06:28:19.578Z,96364.31
2023-04-18T06:30:45.922Z,96368.47
2023-04-18T06:33:12.271Z,96363.94
2023-04-18T06:35:38.609Z,96369.94
2023-04-18T06:38:04.984Z,96377.94
2023-04-18T06:40:31.335Z,96371.13
2023-04-18T06:42:57.738Z,96369.63
2023-04-18T06:45:24.134Z,96367.38
2023-04-18T06:47:50.518Z,96363.66
2023-04-18T06:50:16.901Z,96368.09
2023-04-18T06:52:43.308Z,96369.34
2023-04-18T06:55:09.719Z,96379.03
2023-04-18T06:57:36.112Z,96367.88
2023-04-18T07:00:02.451Z,96368.09
2023-04-18T07:02:28.918Z,96370.38
2023-04-18T07:04:55.377Z,96367.16
2023-04-18T07:07:21.778Z,96367.28
2023-04-18T07:09:48.162Z,96359.19
2023-04-18T07:12:14.523Z,96369.97
2023-04-18T07:14:40.902Z,96366.00
2023-04-18T07:17:07.626Z,96376.22
2023-04-18T07:19:34.146Z,96373.41
2023-04-18T07:22:00.504Z,96372.16
2023-04-18T07:24:26.906Z,96369.44
2023-04-18T07:26:55.088Z,96373.75
2023-04-18T07:29:21.758Z,96369.66
2023-04-18T07:31:48.103Z,96368.63
2023-04-18T07:34:14.747Z,96365.78
2023-04-18T07:36:41.572Z,96362.81
2023-04-18T07:39:07.975Z,96362.28
2023-04-18T07:41:34.334Z,96353.13
2023-04-18T07:44:00.717Z,96352.69
2023-04-18T07:46:27.139Z,96358.50
2023-04-18T07:48:53.575Z,96351.38
2023-04-18T07:51:19.964Z,96358.91
2023-04-18T07:53:46.320Z,96362.53
2023-04-18T07:56:12.687Z,96354.78
2023-04-18T07:58:39.078Z,96353.19
2023-04-18T08:01:05.437Z,96346.53
2023-04-18T08:03:31.963Z,96351.50
2023-04-18T08:05:58.381Z,96349.97
2023-04-18T08:08:24.770Z,96354.44
2023-04-18T08:10:51.181Z,96351.94
2023-04-18T08:13:17.536Z,96355.13
2023-04-18T08:15:43.969Z,96353.97
2023-04-18T08:18:10.343Z,96350.16
2023-04-18T08:20:36.781Z,96347.31
2023-04-18T08:23:07.972Z,96348.19
2023-04-18T08:25:36.029Z,96335.84
2023-04-18T08:28:02.417Z,96346.88
2023-04-18T08:30:28.786Z,96344.38
2023-04-18T08:32:55.166Z,96341.41
2023-04-18T08:35:21.664Z,96344.75
2023-04-18T08:37:48.053Z,96343.19
2023-04-18T08:40:14.409Z,96353.19
2023-04-18T08:42:40.786Z,96347.06
2023-04-18T08:45:07.137Z,96344.69
2023-04-18T08:47:33.557Z,96340.56
2023-04-18T08:49:59.916Z,96340.56
2023-04-18T08:52:26.291Z,96342.84
2023-04-18T08:54:52.683Z,96346.63
2023-04-18T08:57:19.195Z,96342.22
2023-04-18T08:59:46.775Z,96350.91
2023-04-18T09:02:14.979Z,96341.94
2023-04-18T09:04:41.371Z,96345.97
2023-04-18T09:07:07.760Z,96340.81
2023-04-18T09:09:34.112Z,96350.00
2023-04-18T09:12:00.455Z,96338.53
2023-04-18T09:14:26.854Z,96333.91
2023-04-18T09:16:53.301Z,96338.03
2023-04-18T09:19:19.685Z,96343.63
2023-04-18T09:21:46.168Z,96343.63
2023-04-18T09:24:12.777Z,96337.84
2023-04-18T09:26:39.284Z,96342.06
2023-04-18T09:29:05.640Z,96346.75
2023-04-18T09:31:32.088Z,96335.75
2023-04-18T09:33:58.521Z,96343.97
2023-04-18T09:36:24.983Z,96340.88
2023-04-18T09:38:53.704Z,96334.69
2023-04-18T09:41:21.851Z,96330.47
2023-04-18T09:43:48.197Z,96341.88
2023-04-18T09:46:14.625Z,96334.44
2023-04-18T09:48:41.064Z,96345.75
2023-04-18T09:51:07.421Z,96344.56
2023-04-18T09:53:33.760Z,96345.44
2023-04-18T09:56:00.136Z,96341.97
2023-04-18T09:58:26.525Z,96347.75
2023-04-18T10:00:52.897Z,96342.38
2023-04-18T10:03:19.381Z,96341.41
2023-04-18T10:05:45.933Z,96339.13
2023-04-18T10:08:12.343Z,96339.13
2023-04-18T10:10:39.202Z,96339.09
2023-04-18T10:13:05.801Z,96335.00
2023-04-18T10:15:32.450Z,96329.66
2023-04-18T10:18:04.150Z,96331.38
2023-04-18T10:20:34.676Z,96328.72
2023-04-18T10:23:01.449Z,96328.59
2023-04-18T10:25:27.868Z,96323.91
2023-04-18T10:27:54.273Z,96329.06
2023-04-18T10:30:20.649Z,96328.81
2023-04-18T10:32:47.131Z,96318.47
2023-04-18T10:35:13.565Z,96322.91
2023-04-18T10:37:39.904Z,96325.81
2023-04-18T10:40:06.281Z,96311.28
2023-04-18T10:42:32.718Z,96325.31
2023-04-18T10:44:59.098Z,96313.28
2023-04-18T10:47:25.689Z,96317.22
2023-04-18T10:49:52.092Z,96315.28
2023-04-18T10:52:18.427Z,96312.16
2023-04-18T10:54:44.790Z,96305.38
2023-04-18T10:57:11.152Z,96300.28
2023-04-18T10:59:37.546Z,96308.75
2023-04-18T11:02:03.964Z,96308.31
2023-04-18T11:04:30.421Z,96297.53
2023-04-18T11:06:56.846Z,96299.75
2023-04-18T11:09:23.246Z,96298.88
2023-04-18T11:11:49.643Z,96288.34
2023-04-18T11:14:16.303Z,96296.78
2023-04-18T11:16:43.012Z,96282.28
2023-04-18T11:19:09.409Z,96292.59
2023-04-18T11:21:35.783Z,96284.16
2023-04-18T11:24:02.167Z,96282.91
2023-04-18T11:26:28.633Z,96292.09
2023-04-18T11:28:55.007Z,96289.94
2023-04-18T11:31:21.402Z,96280.97
2023-04-18T11:33:47.776Z,96278.38
2023-04-18T11:36:14.151Z,96279.94
2023-04-18T11:38:40.504Z,96273.66
2023-04-18T11:41:06.891Z,96279.22
2023-04-18T11:43:33.447Z,96280.63
2023-04-18T11:46:00.155Z,96276.97
2023-04-18T11:48:26.669Z,96270.13
2023-04-18T11:50:53.123Z,96271.78
2023-04-18T11:53:19.476Z,96267.81
2023-04-18T11:55:45.874Z,96264.97
2023-04-18T11:58:12.261Z,96270.78
2023-04-18T12:00:38.665Z,96267.31
2023-04-18T12:03:05.228Z,96272.63
2023-04-18T12:05:31.957Z,96274.19
2023-04-18T12:07:58.376Z,96263.91
2023-04-18T12:10:24.765Z,96269.72
2023-04-18T12:12:51.150Z,96269.19
2023-04-18T12:15:17.586Z,96264.53
2023-04-18T12:17:44.033Z,96274.47
2023-04-18T12:20:10.483Z,96272.94
2023-04-18T12:22:36.840Z,96270.25
2023-04-18T12:25:03.208Z,96260.78
2023-04-18T12:27:29.562Z,96266.06
2023-04-18T12:29:55.939Z,96260.31
2023-04-18T12:32:22.373Z,96261.41
2023-04-18T12:34:48.712Z,96260.88
2023-04-18T12:37:15.076Z,96261.88
2023-04-18T12:39:41.459Z,96261.91
2023-04-18T12:42:07.842Z,96266.19
2023-04-18T12:44:34.178Z,96266.41
2023-04-18T12:47:00.589Z,96276.72
2023-04-18T12:49:26.998Z,96266.16
2023-04-18T12:51:53.386Z,96275.09
2023-04-18T12:54:19.739Z,96268.53
2023-04-18T12:56:46.124Z,96261.94
2023-04-18T12:59:12.620Z,96261.69
2023-04-18T13:01:39.240Z,96266.44
2023-04-18T13:04:12.524Z,96258.78
2023-04-18T13:06:39.522Z,96261.94
2023-04-18T13:09:05.885Z,96267.22
2023-04-18T13:11:32.231Z,96264.56
2023-04-18T13:13:58.608Z,96257.19
2023-04-18T13:16:26.172Z,96266.69
2023-04-18T13:18:52.577Z,96265.91
2023-04-18T13:21:18.968Z,96271.97
2023-04-18T13:23:45.311Z,96260.38
2023-04-18T13:26:11.685Z,96266.47
2023-04-18T13:28:38.026Z,96268.28
2023-04-18T13:31:04.407Z,96276.22
2023-04-18T13:33:30.766Z,96263.56
2023-04-18T13:35:57.156Z,96270.94
2023-04-18T13:38:23.514Z,96256.41
2023-04-18T13:40:55.805Z,96254.03
2023-04-18T13:43:30.960Z,96250.03
2023-04-18T13:45:57.317Z,96255.84
2023-04-18T13:48:23.693Z,96256.13
2023-04-18T13:50:50.113Z,96262.47
2023-04-18T13:53:16.511Z,96246.59
2023-04-18T13:55:42.893Z,96242.13
2023-04-18T13:58:10.021Z,96248.19
2023-04-18T14:00:36.385Z,96245.25
2023-04-18T14:03:02.931Z,96237.00
2023-04-18T14:05:29.481Z,96241.00
2023-04-18T14:07:55.821Z,96242.88
2023-04-18T14:10:22.212Z,96243.47
2023-04-18T14:12:48.555Z,96239.75
2023-04-18T14:15:14.904Z,96235.78
2023-04-18T14:17:42.790Z,96234.44
2023-04-18T14:20:10.429Z,96239.69
2023-04-18T14:22:36.775Z,96234.44
2023-04-18T14:25:03.158Z,96234.41
2023-04-18T14:27:29.504Z,96245.78
2023-04-18T14:29:55.899Z,96238.63
2023-04-18T14:32:22.385Z,96240.78
2023-04-18T14:34:48.800Z,96237.06
2023-04-18T14:37:15.779Z,96244.66
2023-04-18T14:39:43.477Z,96232.19
2023-04-18T14:42:09.834Z,96234.22
2023-04-18T14:44:36.199Z,96236.84
2023-04-18T14:47:02.675Z,96235.75
2023-04-18T14:49:29.103Z,96234.81
2023-04-18T14:51:55.466Z,96237.19
2023-04-18T14:54:21.847Z,96234.69
2023-04-18T14:56:48.283Z,96233.19
2023-04-18T14:59:16.701Z,96233.13
2023-04-18T15:01:43.386Z,96233.66
2023-04-18T15:04:09.844Z,96226.00
2023-04-18T15:06:36.413Z,96232.00
2023-04-18T15:09:02.767Z,96236.25
2023-04-18T15:11:29.161Z,96231.50
2023-04-18T15:13:55.502Z,96235.84
2023-04-18T15:16:21.846Z,96239.03
2023-04-18T15:18:48.263Z,96228.91
2023-04-18T15:21:14.648Z,96237.88
2023-04-18T15:23:40.993Z,96228.38
2023-04-18T15:26:07.407Z,96221.72
2023-04-18T15:28:33.775Z,96223.56
2023-04-18T15:31:00.185Z,96227.03
2023-04-18T15:33:26.548Z,96223.38
2023-04-18T15:35:52.926Z,96223.56
2023-04-18T15:38:19.280Z,96226.28
2023-04-18T15:40:45.704Z,96230.03
2023-04-18T15:43:12.067Z,96252.28
2023-04-18T15:45:38.442Z,96242.34
2023-04-18T15:48:04.873Z,96244.16
2023-04-18T15:50:33.234Z,96248.66
2023-04-18T15:52:59.989Z,96247.09
2023-04-18T15:55:26.335Z,96235.22
2023-04-18T15:57:52.727Z,96238.63
2023-04-18T16:00:19.068Z,96239.16
2023-04-18T16:02:45.736Z,96237.31
2023-04-18T16:05:12.435Z,96242.34
2023-04-18T16:07:38.855Z,96238.44
2023-04-18T16:10:05.195Z,96245.00
2023-04-18T16:12:31.526Z,96239.19
2023-04-18T16:14:57.904Z,96240.22
2023-04-18T16:17:24.319Z,96241.31
2023-04-18T16:19:50.739Z,96247.16
2023-04-18T16:22:17.088Z,96248.47
2023-04-18T16:24:43.471Z,96248.22
2023-04-18T16:27:09.824Z,96247.69
2023-04-18T16:29:36.151Z,96242.94
2023-04-18T16:32:02.502Z,96247.69
2023-04-18T16:34:28.873Z,96242.94
2023-04-18T16:36:55.743Z,96252.44
2023-04-18T16:39:22.207Z,96262.50
2023-04-18T16:41:48.594Z,96256.16
2023-04-18T16:44:15.151Z,96255.88
2023-04-18T16:46:41.658Z,96253.50
2023-04-18T16:49:08.035Z,96259.31
2023-04-18T16:51:34.419Z,96255.09
2023-04-18T16:54:00.772Z,96258.53
2023-04-18T16:56:27.114Z,96262.50
2023-04-18T16:58:53.485Z,96266.19
2023-04-18T17:01:19.912Z,96264.34
2023-04-18T17:03:46.493Z,96270.94
2023-04-18T17:06:12.999Z,96272.78
2023-04-18T17:08:39.348Z,96264.59
2023-04-18T17:11:05.681Z,96268.28
2023-04-18T17:13:32.018Z,96265.94
2023-04-18T17:15:58.472Z,96274.38
2023-04-18T17:18:24.835Z,96270.94
2023-04-18T17:20:51.175Z,96275.66
2023-04-18T17:23:17.555Z,96273.56
2023-04-18T17:25:43.953Z,96278.81
2023-04-18T17:28:10.334Z,96270.91
2023-04-18T17:30:36.719Z,96290.97
2023-04-18T17:33:03.180Z,96283.56
2023-04-18T17:35:29.609Z,96284.59
2023-04-18T17:37:56.082Z,96282.16
2023-04-18T17:40:22.470Z,96286.63
2023-04-18T17:42:48.817Z,96283.41
2023-04-18T17:45:15.159Z,96281.31
2023-04-18T17:47:41.551Z,96288.66
2023-04-18T17:50:07.956Z,96293.53
2023-04-18T17:52:34.300Z,96291.44
2023-04-18T17:55:00.643Z,96289.53
2023-04-18T17:57:27.030Z,96301.66
2023-04-18T17:59:53.421Z,96294.00
2023-04-18T18:02:19.885Z,96295.06
2023-04-18T18:04:46.334Z,96297.19
2023-04-18T18:07:12.690Z,96300.09
2023-04-18T18:09:39.011Z,96316.41
2023-04-18T18:12:05.382Z,96313.75
2023-04-18T18:14:31.735Z,96312.72
2023-04-18T18:16:58.125Z,96313.69
2023-04-18T18:19:24.510Z,96321.09
2023-04-18T18:21:50.849Z,96313.03
2023-04-18T18:24:17.217Z,96319.66
2023-04-18T18:26:43.573Z,96324.94
2023-04-18T18:29:09.914Z,96322.47
2023-04-18T18:31:36.321Z,96330.41
2023-04-18T18:34:02.754Z,96336.09
2023-04-18T18:36:29.125Z,96338.72
2023-04-18T18:38:55.466Z,96338.16
2023-04-18T18:41:21.809Z,96349.78
2023-04-18T18:43:48.173Z,96349.72
2023-04-18T18:46:14.592Z,96353.41
2023-04-18T18:48:41.002Z,96354.41
2023-04-18T18:51:07.372Z,96364.63
2023-04-18T18:53:33.757Z,96362.44
2023-04-18T18:56:00.176Z,96371.38
2023-04-18T18:58:26.557Z,96364.03
2023-04-18T19:00:52.988Z,96375.19
2023-04-18T19:03:19.594Z,96367.22
2023-04-18T19:05:46.146Z,96381.06
2023-04-18T19:08:12.503Z,96378.81
2023-04-18T19:10:38.876Z,96376.66
2023-04-18T19:13:05.227Z,96372.38
2023-04-18T19:15:31.577Z,96380.97
2023-04-18T19:17:58.017Z,96379.41
2023-04-18T19:20:24.469Z,96387.03
2023-04-18T19:22:50.883Z,96382.91
2023-04-18T19:25:17.296Z,96375.06
2023-04-18T19:27:43.683Z,96377.34
2023-04-18T19:30:10.084Z,96382.59
2023-04-18T19:32:36.505Z,96388.94
2023-04-18T19:35:02.905Z,96382.09
2023-04-18T19:37:29.312Z,96391.03
2023-04-18T19:39:55.664Z,96386.28
2023-04-18T19:42:22.039Z,96383.34
2023-04-18T19:44:48.443Z,96385.41
2023-04-18T19:47:14.796Z,96385.00
2023-04-18T19:49:41.154Z,96390.84
2023-04-18T19:52:07.885Z,96396.56
2023-04-18T19:54:34.283Z,96400.94
2023-04-18T19:57:00.650Z,96400.09
2023-04-18T19:59:26.988Z,96400.38
2023-04-18T20:01:53.323Z,96400.00
2023-04-18T20:04:19.824Z,96400.38
2023-04-18T20:06:46.233Z,96416.88
2023-04-18T20:09:12.823Z,96405.72
2023-04-18T20:11:39.300Z,96402.78
2023-04-18T20:14:05.714Z,96408.28
2023-04-18T20:16:32.178Z,96411.84
2023-04-18T20:18:58.551Z,96398.81
2023-04-18T20:21:24.889Z,96415.06
2023-04-18T20:23:51.246Z,96408.13
2023-04-18T20:26:17.608Z,96404.88
2023-04-18T20:28:43.964Z,96396.34
2023-04-18T20:31:10.350Z,96409.84
2023-04-18T20:33:36.792Z,96406.34
2023-04-18T20:36:03.165Z,96408.75
2023-04-18T20:38:29.808Z,96412.25
2023-04-18T20:40:56.377Z,96404.59
2023-04-18T20:43:22.772Z,96405.00
2023-04-18T20:45:49.188Z,96411.13
2023-04-18T20:48:15.606Z,96417.19
2023-04-18T20:50:41.957Z,96414.47
2023-04-18T20:53:08.339Z,96421.22
2023-04-18T20:55:34.734Z,96414.53
2023-04-18T20:58:01.083Z,96416.91
2023-04-18T21:00:27.471Z,96422.25
2023-04-18T21:02:53.906Z,96416.34
2023-04-18T21:05:20.367Z,96420.50
2023-04-18T21:07:46.753Z,96413.09
2023-04-18T21:10:13.104Z,96412.84
2023-04-18T21:12:39.455Z,96413.00
2023-04-18T21:15:05.848Z,96426.28
2023-04-18T21:17:32.327Z,96415.03
2023-04-18T21:19:58.733Z,96415.03
2023-04-18T21:22:25.132Z,96435.09
2023-04-18T21:24:51.531Z,96431.94
2023-04-18T21:27:17.877Z,96429.94
2023-04-18T21:29:44.203Z,96438.56
2023-04-18T21:32:10.542Z,96437.97
2023-04-18T21:34:36.894Z,96434.56
2023-04-18T21:37:03.271Z,96439.56
2023-04-18T21:39:29.618Z,96445.53
2023-04-18T21:41:55.992Z,96440.59
2023-04-18T21:44:22.381Z,96448.38
2023-04-18T21:46:48.737Z,96449.78
2023-04-18T21:49:15.125Z,96457.53
2023-04-18T21:51:41.524Z,96459.81
2023-04-18T21:54:07.925Z,96469.84
2023-04-18T21:56:34.272Z,96469.28
2023-04-18T21:59:00.615Z,96471.22
2023-04-18T22:01:27.012Z,96473.50
2023-04-18T22:03:53.788Z,96466.66
2023-04-18T22:06:20.282Z,96461.19
2023-04-18T22:08:46.693Z,96471.69
2023-04-18T22:11:13.039Z,96468.13
2023-04-18T22:13:39.432Z,96471.69
2023-04-18T22:16:05.839Z,96474.72
2023-04-18T22:18:32.260Z,96468.97
2023-04-18T22:20:58.657Z,96471.69
2023-04-18T22:23:25.023Z,96476.94
2023-04-18T22:25:51.416Z,96490.88
2023-04-18T22:28:17.782Z,96489.09
2023-04-18T22:30:44.278Z,96481.56
2023-04-18T22:33:10.714Z,96483.13
2023-04-18T22:35:37.086Z,96479.63
2023-04-18T22:38:03.491Z,96481.09
2023-04-18T22:40:29.848Z,96490.00
2023-04-18T22:42:56.186Z,96487.47
2023-04-18T22:45:22.533Z,96486.47
2023-04-18T22:47:48.941Z,96485.44
2023-04-18T22:50:15.318Z,96491.38
2023-04-18T22:52:41.671Z,96487.38
2023-04-18T22:55:08.069Z,96492.72
2023-04-18T22:57:34.456Z,96497.84
2023-04-18T23:00:00.837Z,96497.41
2023-04-18T23:02:27.322Z,96501.38
2023-04-18T23:04:54.086Z,96507.44
2023-04-18T23:07:20.481Z,96506.47
2023-04-18T23:09:46.828Z,96509.38
2023-04-18T23:12:13.163Z,96502.84
2023-04-18T23:14:39.539Z,96503.28
2023-04-18T23:17:05.891Z,96512.94
2023-04-18T23:19:32.287Z,96521.25
2023-04-18T23:21:58.641Z,96519.34
2023-04-18T23:24:25.000Z,96509.31
2023-04-18T23:26:51.344Z,96508.44
2023-04-18T23:29:17.692Z,96510.28
2023-04-18T23:31:44.081Z,96508.59
2023-04-18T23:34:10.490Z,96509.88
2023-04-18T23:36:36.881Z,96519.25
2023-04-18T23:39:03.285Z,96526.84
2023-04-18T23:41:29.664Z,96515.69
2023-04-18T23:43:56.078Z,96519.25
2023-04-18T23:46:22.511Z,96517.22
2023-04-18T23:48:48.992Z,96516.16
2023-04-18T23:51:15.375Z,96510.13
2023-04-18T23:53:41.719Z,96519.47
2023-04-18T23:56:08.067Z,96524.50
2023-04-18T23:58:34.406Z,96519.97
